sensor_id;sensor_type;location;lat;lon;timestamp;P1;durP1;ratioP1;P2;durP2;ratioP2
24173;SDS011;12324;48.146;11.502;2023-04-03T00:02:09;19.13;;;12.00;;
24173;SDS011;12324;48.146;11.502;2023-04-03T00:04:36;22.10;;;13.18;;
24173;SDS011;12324;48.146;11.502;2023-04-03T00:07:03;19.60;;;12.30;;
24173;SDS011;12324;48.146;11.502;2023-04-03T00:09:30;21.77;;;13.27;;
24173;SDS011;12324;48.146;11.502;2023-04-03T00:11:57;19.75;;;12.48;;
24173;SDS011;12324;48.146;11.502;2023-04-03T00:14:24;21.13;;;12.27;;
24173;SDS011;12324;48.146;11.502;2023-04-03T00:16:51;20.98;;;13.07;;
24173;SDS011;12324;48.146;11.502;2023-04-03T00:19:18;21.05;;;12.35;;
24173;SDS011;12324;48.146;11.502;2023-04-03T00:21:45;21.45;;;11.68;;
24173;SDS011;12324;48.146;11.502;2023-04-03T00:24:12;22.27;;;12.20;;
24173;SDS011;12324;48.146;11.502;2023-04-03T00:26:40;19.50;;;12.02;;
24173;SDS011;12324;48.146;11.502;2023-04-03T00:29:07;20.95;;;13.23;;
24173;SDS011;12324;48.146;11.502;2023-04-03T00:31:34;20.05;;;11.88;;
24173;SDS011;12324;48.146;11.502;2023-04-03T00:34:01;18.55;;;12.18;;
24173;SDS011;12324;48.146;11.502;2023-04-03T00:36:28;20.83;;;12.55;;
24173;SDS011;12324;48.146;11.502;2023-04-03T00:38:55;21.50;;;11.32;;
24173;SDS011;12324;48.146;11.502;2023-04-03T00:41:22;20.45;;;11.20;;
24173;SDS011;12324;48.146;11.502;2023-04-03T00:43:49;21.25;;;11.82;;
24173;SDS011;12324;48.146;11.502;2023-04-03T00:46:16;20.90;;;11.27;;
24173;SDS011;12324;48.146;11.502;2023-04-03T00:48:44;19.98;;;10.77;;
24173;SDS011;12324;48.146;11.502;2023-04-03T00:51:30;19.95;;;10.30;;
24173;SDS011;12324;48.146;11.502;2023-04-03T00:54:01;17.73;;;10.45;;
24173;SDS011;12324;48.146;11.502;2023-04-03T00:56:29;18.38;;;10.82;;
24173;SDS011;12324;48.146;11.502;2023-04-03T00:59:01;21.23;;;11.57;;
24173;SDS011;12324;48.146;11.502;2023-04-03T01:01:30;18.50;;;10.75;;
24173;SDS011;12324;48.146;11.502;2023-04-03T01:04:00;20.38;;;11.65;;
24173;SDS011;12324;48.146;11.502;2023-04-03T01:06:30;20.48;;;9.95;;
24173;SDS011;12324;48.146;11.502;2023-04-03T01:08:59;20.02;;;11.85;;
24173;SDS011;12324;48.146;11.502;2023-04-03T01:11:26;18.77;;;11.27;;
24173;SDS011;12324;48.146;11.502;2023-04-03T01:13:53;17.80;;;10.40;;
24173;SDS011;12324;48.146;11.502;2023-04-03T01:16:20;19.63;;;10.73;;
24173;SDS011;12324;48.146;11.502;2023-04-03T01:18:48;19.02;;;11.27;;
24173;SDS011;12324;48.146;11.502;2023-04-03T01:23:53;16.52;;;10.13;;
24173;SDS011;12324;48.146;11.502;2023-04-03T01:26:22;18.70;;;11.20;;
24173;SDS011;12324;48.146;11.502;2023-04-03T01:28:53;16.45;;;10.40;;
24173;SDS011;12324;48.146;11.502;2023-04-03T01:33:56;18.08;;;10.60;;
24173;SDS011;12324;48.146;11.502;2023-04-03T01:36:25;18.58;;;11.20;;
24173;SDS011;12324;48.146;11.502;2023-04-03T01:38:53;18.42;;;10.32;;
24173;SDS011;12324;48.146;11.502;2023-04-03T01:41:20;20.52;;;10.57;;
24173;SDS011;12324;48.146;11.502;2023-04-03T01:43:48;20.02;;;11.10;;
24173;SDS011;12324;48.146;11.502;2023-04-03T01:46:16;18.48;;;10.15;;
24173;SDS011;12324;48.146;11.502;2023-04-03T01:48:43;18.05;;;9.88;;
24173;SDS011;12324;48.146;11.502;2023-04-03T01:51:10;19.35;;;10.70;;
24173;SDS011;12324;48.146;11.502;2023-04-03T01:53:37;19.33;;;10.90;;
24173;SDS011;12324;48.146;11.502;2023-04-03T01:56:05;17.60;;;10.85;;
24173;SDS011;12324;48.146;11.502;2023-04-03T01:58:32;21.08;;;10.85;;
24173;SDS011;12324;48.146;11.502;2023-04-03T02:00:59;17.90;;;10.55;;
24173;SDS011;12324;48.146;11.502;2023-04-03T02:03:26;16.58;;;9.68;;
24173;SDS011;12324;48.146;11.502;2023-04-03T02:05:53;18.73;;;10.15;;
24173;SDS011;12324;48.146;11.502;2023-04-03T02:08:21;17.70;;;10.50;;
24173;SDS011;12324;48.146;11.502;2023-04-03T02:10:48;16.77;;;9.98;;
24173;SDS011;12324;48.146;11.502;2023-04-03T02:13:16;16.88;;;9.55;;
24173;SDS011;12324;48.146;11.502;2023-04-03T02:15:43;16.30;;;9.85;;
24173;SDS011;12324;48.146;11.502;2023-04-03T02:18:12;16.50;;;8.90;;
24173;SDS011;12324;48.146;11.502;2023-04-03T02:20:39;17.02;;;9.73;;
24173;SDS011;12324;48.146;11.502;2023-04-03T02:23:06;17.35;;;9.73;;
24173;SDS011;12324;48.146;11.502;2023-04-03T02:25:33;18.67;;;10.18;;
24173;SDS011;12324;48.146;11.502;2023-04-03T02:28:03;18.02;;;8.88;;
24173;SDS011;12324;48.146;11.502;2023-04-03T02:30:30;15.70;;;9.20;;
24173;SDS011;12324;48.146;11.502;2023-04-03T02:32:57;16.35;;;9.30;;
24173;SDS011;12324;48.146;11.502;2023-04-03T02:35:25;17.15;;;9.20;;
24173;SDS011;12324;48.146;11.502;2023-04-03T02:37:52;17.30;;;8.57;;
24173;SDS011;12324;48.146;11.502;2023-04-03T02:40:19;18.83;;;10.05;;
24173;SDS011;12324;48.146;11.502;2023-04-03T02:42:46;15.43;;;8.65;;
24173;SDS011;12324;48.146;11.502;2023-04-03T02:45:13;17.48;;;9.55;;
24173;SDS011;12324;48.146;11.502;2023-04-03T02:47:40;17.17;;;8.93;;
24173;SDS011;12324;48.146;11.502;2023-04-03T02:50:07;17.85;;;8.85;;
24173;SDS011;12324;48.146;11.502;2023-04-03T02:52:35;15.98;;;9.05;;
24173;SDS011;12324;48.146;11.502;2023-04-03T02:55:02;14.43;;;7.88;;
24173;SDS011;12324;48.146;11.502;2023-04-03T02:57:29;16.63;;;8.07;;
24173;SDS011;12324;48.146;11.502;2023-04-03T02:59:56;18.10;;;8.70;;
24173;SDS011;12324;48.146;11.502;2023-04-03T03:02:23;15.93;;;7.22;;
24173;SDS011;12324;48.146;11.502;2023-04-03T03:04:51;15.00;;;7.70;;
24173;SDS011;12324;48.146;11.502;2023-04-03T03:07:18;17.35;;;7.70;;
24173;SDS011;12324;48.146;11.502;2023-04-03T03:09:45;13.40;;;7.18;;
24173;SDS011;12324;48.146;11.502;2023-04-03T03:12:12;12.55;;;6.40;;
24173;SDS011;12324;48.146;11.502;2023-04-03T03:14:39;13.65;;;6.50;;
24173;SDS011;12324;48.146;11.502;2023-04-03T03:17:07;11.60;;;6.10;;
24173;SDS011;12324;48.146;11.502;2023-04-03T03:19:35;14.77;;;7.18;;
24173;SDS011;12324;48.146;11.502;2023-04-03T03:22:02;15.10;;;6.65;;
24173;SDS011;12324;48.146;11.502;2023-04-03T03:24:29;13.00;;;6.55;;
24173;SDS011;12324;48.146;11.502;2023-04-03T03:26:56;12.13;;;5.80;;
24173;SDS011;12324;48.146;11.502;2023-04-03T03:29:23;12.75;;;5.88;;
24173;SDS011;12324;48.146;11.502;2023-04-03T03:31:50;11.63;;;5.90;;
24173;SDS011;12324;48.146;11.502;2023-04-03T03:34:17;15.90;;;6.32;;
24173;SDS011;12324;48.146;11.502;2023-04-03T03:36:44;13.10;;;6.47;;
24173;SDS011;12324;48.146;11.502;2023-04-03T03:39:12;13.35;;;6.10;;
24173;SDS011;12324;48.146;11.502;2023-04-03T03:41:39;13.13;;;5.93;;
24173;SDS011;12324;48.146;11.502;2023-04-03T03:44:06;11.70;;;5.57;;
24173;SDS011;12324;48.146;11.502;2023-04-03T03:46:33;12.18;;;6.00;;
24173;SDS011;12324;48.146;11.502;2023-04-03T03:49:00;12.55;;;6.43;;
24173;SDS011;12324;48.146;11.502;2023-04-03T03:51:27;15.73;;;5.95;;
24173;SDS011;12324;48.146;11.502;2023-04-03T03:53:54;13.98;;;6.03;;
24173;SDS011;12324;48.146;11.502;2023-04-03T03:56:21;12.55;;;5.68;;
24173;SDS011;12324;48.146;11.502;2023-04-03T03:58:48;11.93;;;5.65;;
24173;SDS011;12324;48.146;11.502;2023-04-03T04:01:15;11.88;;;5.90;;
24173;SDS011;12324;48.146;11.502;2023-04-03T04:03:43;13.30;;;5.75;;
24173;SDS011;12324;48.146;11.502;2023-04-03T04:06:10;12.02;;;6.03;;
24173;SDS011;12324;48.146;11.502;2023-04-03T04:08:37;12.88;;;6.20;;
24173;SDS011;12324;48.146;11.502;2023-04-03T04:11:04;12.82;;;5.88;;
24173;SDS011;12324;48.146;11.502;2023-04-03T04:13:31;10.88;;;5.53;;
24173;SDS011;12324;48.146;11.502;2023-04-03T04:15:58;13.15;;;6.53;;
24173;SDS011;12324;48.146;11.502;2023-04-03T04:18:25;13.15;;;5.88;;
24173;SDS011;12324;48.146;11.502;2023-04-03T04:20:52;11.40;;;5.82;;
24173;SDS011;12324;48.146;11.502;2023-04-03T04:23:19;13.15;;;6.22;;
24173;SDS011;12324;48.146;11.502;2023-04-03T04:25:47;11.30;;;5.50;;
24173;SDS011;12324;48.146;11.502;2023-04-03T04:28:15;13.95;;;6.03;;
24173;SDS011;12324;48.146;11.502;2023-04-03T04:30:42;10.45;;;5.30;;
24173;SDS011;12324;48.146;11.502;2023-04-03T04:33:09;14.45;;;6.25;;
24173;SDS011;12324;48.146;11.502;2023-04-03T04:35:36;12.30;;;5.68;;
24173;SDS011;12324;48.146;11.502;2023-04-03T04:38:04;12.90;;;5.63;;
24173;SDS011;12324;48.146;11.502;2023-04-03T04:40:31;11.98;;;5.72;;
24173;SDS011;12324;48.146;11.502;2023-04-03T04:42:58;14.40;;;6.60;;
24173;SDS011;12324;48.146;11.502;2023-04-03T04:45:25;10.32;;;5.05;;
24173;SDS011;12324;48.146;11.502;2023-04-03T04:47:54;12.35;;;5.65;;
24173;SDS011;12324;48.146;11.502;2023-04-03T04:50:22;13.63;;;5.38;;
24173;SDS011;12324;48.146;11.502;2023-04-03T04:52:49;12.00;;;5.35;;
24173;SDS011;12324;48.146;11.502;2023-04-03T04:55:16;13.68;;;5.80;;
24173;SDS011;12324;48.146;11.502;2023-04-03T04:57:43;14.82;;;5.93;;
24173;SDS011;12324;48.146;11.502;2023-04-03T05:00:10;13.43;;;5.80;;
24173;SDS011;12324;48.146;11.502;2023-04-03T05:02:38;12.10;;;6.32;;
24173;SDS011;12324;48.146;11.502;2023-04-03T05:05:05;11.80;;;5.93;;
24173;SDS011;12324;48.146;11.502;2023-04-03T05:07:32;12.68;;;5.95;;
24173;SDS011;12324;48.146;11.502;2023-04-03T05:10:02;11.38;;;5.10;;
24173;SDS011;12324;48.146;11.502;2023-04-03T05:12:29;13.35;;;5.78;;
24173;SDS011;12324;48.146;11.502;2023-04-03T05:14:56;12.38;;;6.07;;
24173;SDS011;12324;48.146;11.502;2023-04-03T05:17:23;13.88;;;6.13;;
24173;SDS011;12324;48.146;11.502;2023-04-03T05:19:50;10.85;;;5.38;;
24173;SDS011;12324;48.146;11.502;2023-04-03T05:22:17;10.18;;;5.38;;
24173;SDS011;12324;48.146;11.502;2023-04-03T05:24:44;12.38;;;5.43;;
24173;SDS011;12324;48.146;11.502;2023-04-03T05:27:11;11.15;;;5.55;;
24173;SDS011;12324;48.146;11.502;2023-04-03T05:29:38;13.98;;;6.25;;
24173;SDS011;12324;48.146;11.502;2023-04-03T05:32:10;14.25;;;6.07;;
24173;SDS011;12324;48.146;11.502;2023-04-03T05:34:37;13.27;;;6.10;;
24173;SDS011;12324;48.146;11.502;2023-04-03T05:37:04;12.93;;;5.65;;
24173;SDS011;12324;48.146;11.502;2023-04-03T05:39:32;10.13;;;5.28;;
24173;SDS011;12324;48.146;11.502;2023-04-03T05:41:59;11.32;;;5.43;;
24173;SDS011;12324;48.146;11.502;2023-04-03T05:44:26;12.13;;;5.70;;
24173;SDS011;12324;48.146;11.502;2023-04-03T05:46:53;12.43;;;5.43;;
24173;SDS011;12324;48.146;11.502;2023-04-03T05:49:21;13.38;;;6.45;;
24173;SDS011;12324;48.146;11.502;2023-04-03T05:51:48;14.07;;;6.00;;
24173;SDS011;12324;48.146;11.502;2023-04-03T05:54:28;12.18;;;5.93;;
24173;SDS011;12324;48.146;11.502;2023-04-03T05:56:55;14.30;;;6.72;;
24173;SDS011;12324;48.146;11.502;2023-04-03T05:59:22;13.88;;;6.18;;
24173;SDS011;12324;48.146;11.502;2023-04-03T06:01:49;12.40;;;5.78;;
24173;SDS011;12324;48.146;11.502;2023-04-03T06:04:16;13.32;;;6.03;;
24173;SDS011;12324;48.146;11.502;2023-04-03T06:06:46;12.65;;;6.38;;
24173;SDS011;12324;48.146;11.502;2023-04-03T06:09:14;15.00;;;6.13;;
24173;SDS011;12324;48.146;11.502;2023-04-03T06:11:42;14.15;;;6.28;;
24173;SDS011;12324;48.146;11.502;2023-04-03T06:14:09;15.73;;;6.65;;
24173;SDS011;12324;48.146;11.502;2023-04-03T06:16:36;12.02;;;5.50;;
24173;SDS011;12324;48.146;11.502;2023-04-03T06:19:05;13.20;;;5.85;;
24173;SDS011;12324;48.146;11.502;2023-04-03T06:21:33;14.65;;;6.70;;
24173;SDS011;12324;48.146;11.502;2023-04-03T06:24:02;13.63;;;6.20;;
24173;SDS011;12324;48.146;11.502;2023-04-03T06:26:29;14.20;;;6.47;;
24173;SDS011;12324;48.146;11.502;2023-04-03T06:28:57;13.88;;;6.57;;
24173;SDS011;12324;48.146;11.502;2023-04-03T06:31:24;14.07;;;6.70;;
24173;SDS011;12324;48.146;11.502;2023-04-03T06:33:51;13.82;;;6.13;;
24173;SDS011;12324;48.146;11.502;2023-04-03T06:36:19;11.98;;;5.88;;
24173;SDS011;12324;48.146;11.502;2023-04-03T06:38:47;10.13;;;5.13;;
24173;SDS011;12324;48.146;11.502;2023-04-03T06:41:14;13.70;;;6.25;;
24173;SDS011;12324;48.146;11.502;2023-04-03T06:43:45;11.85;;;6.20;;
24173;SDS011;12324;48.146;11.502;2023-04-03T06:46:15;11.90;;;6.25;;
24173;SDS011;12324;48.146;11.502;2023-04-03T06:48:43;15.60;;;6.20;;
24173;SDS011;12324;48.146;11.502;2023-04-03T06:51:14;13.30;;;5.97;;
24173;SDS011;12324;48.146;11.502;2023-04-03T06:53:42;12.10;;;6.43;;
24173;SDS011;12324;48.146;11.502;2023-04-03T06:56:09;15.32;;;6.40;;
24173;SDS011;12324;48.146;11.502;2023-04-03T06:58:36;14.05;;;6.55;;
24173;SDS011;12324;48.146;11.502;2023-04-03T07:01:03;15.68;;;6.25;;
24173;SDS011;12324;48.146;11.502;2023-04-03T07:03:32;13.85;;;6.20;;
24173;SDS011;12324;48.146;11.502;2023-04-03T07:06:00;12.82;;;6.03;;
24173;SDS011;12324;48.146;11.502;2023-04-03T07:08:28;12.93;;;5.45;;
24173;SDS011;12324;48.146;11.502;2023-04-03T07:10:55;12.93;;;5.72;;
24173;SDS011;12324;48.146;11.502;2023-04-03T07:13:22;12.15;;;5.30;;
24173;SDS011;12324;48.146;11.502;2023-04-03T07:15:49;10.43;;;5.25;;
24173;SDS011;12324;48.146;11.502;2023-04-03T07:18:16;11.90;;;5.95;;
24173;SDS011;12324;48.146;11.502;2023-04-03T07:20:43;15.18;;;5.85;;
24173;SDS011;12324;48.146;11.502;2023-04-03T07:23:10;14.18;;;6.20;;
24173;SDS011;12324;48.146;11.502;2023-04-03T07:25:44;11.25;;;5.35;;
24173;SDS011;12324;48.146;11.502;2023-04-03T07:28:12;11.38;;;5.50;;
24173;SDS011;12324;48.146;11.502;2023-04-03T07:30:43;12.95;;;5.90;;
24173;SDS011;12324;48.146;11.502;2023-04-03T07:33:11;14.23;;;6.60;;
24173;SDS011;12324;48.146;11.502;2023-04-03T07:35:39;12.43;;;6.28;;
24173;SDS011;12324;48.146;11.502;2023-04-03T07:38:07;13.80;;;6.43;;
24173;SDS011;12324;48.146;11.502;2023-04-03T07:40:34;15.38;;;6.65;;
24173;SDS011;12324;48.146;11.502;2023-04-03T07:43:01;11.25;;;5.55;;
24173;SDS011;12324;48.146;11.502;2023-04-03T07:45:29;14.45;;;5.97;;
24173;SDS011;12324;48.146;11.502;2023-04-03T07:47:56;10.50;;;5.65;;
24173;SDS011;12324;48.146;11.502;2023-04-03T07:50:23;12.57;;;6.10;;
24173;SDS011;12324;48.146;11.502;2023-04-03T07:52:51;13.95;;;5.82;;
24173;SDS011;12324;48.146;11.502;2023-04-03T07:55:20;11.95;;;5.85;;
24173;SDS011;12324;48.146;11.502;2023-04-03T07:57:47;12.98;;;6.28;;
24173;SDS011;12324;48.146;11.502;2023-04-03T08:00:17;14.15;;;6.43;;
24173;SDS011;12324;48.146;11.502;2023-04-03T08:02:45;15.95;;;6.40;;
24173;SDS011;12324;48.146;11.502;2023-04-03T08:05:18;13.85;;;6.72;;
24173;SDS011;12324;48.146;11.502;2023-04-03T08:07:45;14.43;;;6.43;;
24173;SDS011;12324;48.146;11.502;2023-04-03T08:10:13;13.00;;;5.75;;
24173;SDS011;12324;48.146;11.502;2023-04-03T08:12:40;15.32;;;7.30;;
24173;SDS011;12324;48.146;11.502;2023-04-03T08:15:08;13.98;;;6.72;;
24173;SDS011;12324;48.146;11.502;2023-04-03T08:17:35;16.25;;;6.85;;
24173;SDS011;12324;48.146;11.502;2023-04-03T08:20:06;14.25;;;6.70;;
24173;SDS011;12324;48.146;11.502;2023-04-03T08:22:34;14.50;;;6.78;;
24173;SDS011;12324;48.146;11.502;2023-04-03T08:25:03;16.02;;;7.32;;
24173;SDS011;12324;48.146;11.502;2023-04-03T08:27:31;14.05;;;6.78;;
24173;SDS011;12324;48.146;11.502;2023-04-03T08:30:01;13.43;;;6.50;;
24173;SDS011;12324;48.146;11.502;2023-04-03T08:32:28;14.10;;;6.55;;
24173;SDS011;12324;48.146;11.502;2023-04-03T08:34:55;13.40;;;6.32;;
24173;SDS011;12324;48.146;11.502;2023-04-03T08:37:22;13.10;;;6.57;;
24173;SDS011;12324;48.146;11.502;2023-04-03T08:39:49;15.80;;;6.88;;
24173;SDS011;12324;48.146;11.502;2023-04-03T08:42:33;17.58;;;6.20;;
24173;SDS011;12324;48.146;11.502;2023-04-03T08:47:53;10.10;;;5.40;;
24173;SDS011;12324;48.146;11.502;2023-04-03T08:50:42;14.55;;;6.93;;
24173;SDS011;12324;48.146;11.502;2023-04-03T08:53:17;14.95;;;6.57;;
24173;SDS011;12324;48.146;11.502;2023-04-03T08:55:47;12.82;;;5.85;;
24173;SDS011;12324;48.146;11.502;2023-04-03T08:58:16;16.42;;;6.20;;
24173;SDS011;12324;48.146;11.502;2023-04-03T09:00:44;12.82;;;5.82;;
24173;SDS011;12324;48.146;11.502;2023-04-03T09:03:13;11.60;;;5.82;;
24173;SDS011;12324;48.146;11.502;2023-04-03T09:08:18;13.82;;;6.65;;
24173;SDS011;12324;48.146;11.502;2023-04-03T09:10:48;15.95;;;6.05;;
24173;SDS011;12324;48.146;11.502;2023-04-03T09:13:30;11.23;;;6.15;;
24173;SDS011;12324;48.146;11.502;2023-04-03T09:18:30;13.20;;;5.93;;
24173;SDS011;12324;48.146;11.502;2023-04-03T09:23:43;13.15;;;6.05;;
24173;SDS011;12324;48.146;11.502;2023-04-03T09:26:16;12.05;;;6.47;;
24173;SDS011;12324;48.146;11.502;2023-04-03T09:28:45;15.25;;;6.60;;
24173;SDS011;12324;48.146;11.502;2023-04-03T09:31:20;13.98;;;6.32;;
24173;SDS011;12324;48.146;11.502;2023-04-03T09:33:52;13.25;;;5.70;;
24173;SDS011;12324;48.146;11.502;2023-04-03T09:36:39;12.00;;;5.85;;
24173;SDS011;12324;48.146;11.502;2023-04-03T09:39:11;14.15;;;6.10;;
24173;SDS011;12324;48.146;11.502;2023-04-03T09:41:38;13.35;;;6.47;;
24173;SDS011;12324;48.146;11.502;2023-04-03T09:44:22;14.13;;;6.00;;
24173;SDS011;12324;48.146;11.502;2023-04-03T09:46:52;13.63;;;5.68;;
24173;SDS011;12324;48.146;11.502;2023-04-03T09:49:21;14.27;;;5.72;;
24173;SDS011;12324;48.146;11.502;2023-04-03T09:51:48;10.73;;;5.45;;
24173;SDS011;12324;48.146;11.502;2023-04-03T09:56:52;11.13;;;5.35;;
24173;SDS011;12324;48.146;11.502;2023-04-03T09:59:21;12.05;;;5.55;;
24173;SDS011;12324;48.146;11.502;2023-04-03T10:04:51;11.35;;;5.38;;
24173;SDS011;12324;48.146;11.502;2023-04-03T10:07:35;13.95;;;6.32;;
24173;SDS011;12324;48.146;11.502;2023-04-03T10:10:15;13.48;;;6.00;;
24173;SDS011;12324;48.146;11.502;2023-04-03T10:12:46;12.82;;;5.50;;
24173;SDS011;12324;48.146;11.502;2023-04-03T10:15:14;9.77;;;5.28;;
24173;SDS011;12324;48.146;11.502;2023-04-03T10:20:23;11.80;;;5.90;;
24173;SDS011;12324;48.146;11.502;2023-04-03T10:23:00;11.68;;;5.78;;
24173;SDS011;12324;48.146;11.502;2023-04-03T10:25:35;14.07;;;6.30;;
24173;SDS011;12324;48.146;11.502;2023-04-03T10:28:12;14.15;;;6.40;;
24173;SDS011;12324;48.146;11.502;2023-04-03T10:33:53;14.55;;;7.45;;
24173;SDS011;12324;48.146;11.502;2023-04-03T10:38:57;11.40;;;5.32;;
24173;SDS011;12324;48.146;11.502;2023-04-03T10:46:49;11.95;;;5.45;;
24173;SDS011;12324;48.146;11.502;2023-04-03T10:54:57;9.85;;;4.88;;
24173;SDS011;12324;48.146;11.502;2023-04-03T10:57:29;9.32;;;4.90;;
24173;SDS011;12324;48.146;11.502;2023-04-03T10:59:58;11.85;;;4.05;;
24173;SDS011;12324;48.146;11.502;2023-04-03T11:02:30;13.38;;;5.60;;
24173;SDS011;12324;48.146;11.502;2023-04-03T11:05:03;12.82;;;4.38;;
24173;SDS011;12324;48.146;11.502;2023-04-03T11:07:38;10.48;;;4.53;;
24173;SDS011;12324;48.146;11.502;2023-04-03T11:10:15;12.00;;;4.10;;
24173;SDS011;12324;48.146;11.502;2023-04-03T11:12:49;12.95;;;4.80;;
24173;SDS011;12324;48.146;11.502;2023-04-03T11:17:48;9.82;;;4.07;;
24173;SDS011;12324;48.146;11.502;2023-04-03T11:20:22;7.88;;;3.97;;
24173;SDS011;12324;48.146;11.502;2023-04-03T11:22:57;8.38;;;3.83;;
24173;SDS011;12324;48.146;11.502;2023-04-03T11:25:25;10.07;;;4.13;;
24173;SDS011;12324;48.146;11.502;2023-04-03T11:27:57;8.60;;;4.15;;
24173;SDS011;12324;48.146;11.502;2023-04-03T11:30:39;12.65;;;4.72;;
24173;SDS011;12324;48.146;11.502;2023-04-03T11:35:45;10.98;;;4.50;;
24173;SDS011;12324;48.146;11.502;2023-04-03T11:38:17;10.13;;;4.93;;
24173;SDS011;12324;48.146;11.502;2023-04-03T11:40:46;10.30;;;4.00;;
24173;SDS011;12324;48.146;11.502;2023-04-03T11:45:51;9.82;;;3.97;;
24173;SDS011;12324;48.146;11.502;2023-04-03T11:50:57;10.93;;;3.78;;
24173;SDS011;12324;48.146;11.502;2023-04-03T11:53:26;12.85;;;4.32;;
24173;SDS011;12324;48.146;11.502;2023-04-03T11:55:55;8.27;;;3.75;;
24173;SDS011;12324;48.146;11.502;2023-04-03T12:00:54;10.75;;;4.18;;
24173;SDS011;12324;48.146;11.502;2023-04-03T12:16:08;7.93;;;3.20;;
24173;SDS011;12324;48.146;11.502;2023-04-03T12:21:16;9.57;;;3.30;;
24173;SDS011;12324;48.146;11.502;2023-04-03T12:29:23;8.35;;;3.22;;
24173;SDS011;12324;48.146;11.502;2023-04-03T12:34:37;11.75;;;3.30;;
24173;SDS011;12324;48.146;11.502;2023-04-03T12:39:54;6.22;;;2.75;;
24173;SDS011;12324;48.146;11.502;2023-04-03T12:44:59;4.25;;;2.58;;
24173;SDS011;12324;48.146;11.502;2023-04-03T12:47:29;3.90;;;2.17;;
24173;SDS011;12324;48.146;11.502;2023-04-03T12:49:59;6.93;;;2.90;;
24173;SDS011;12324;48.146;11.502;2023-04-03T12:52:41;6.10;;;2.47;;
24173;SDS011;12324;48.146;11.502;2023-04-03T12:55:16;8.07;;;3.00;;
24173;SDS011;12324;48.146;11.502;2023-04-03T12:57:43;9.02;;;2.83;;
24173;SDS011;12324;48.146;11.502;2023-04-03T13:03:01;5.85;;;2.45;;
24173;SDS011;12324;48.146;11.502;2023-04-03T13:05:30;7.00;;;3.05;;
24173;SDS011;12324;48.146;11.502;2023-04-03T13:08:02;6.50;;;2.80;;
24173;SDS011;12324;48.146;11.502;2023-04-03T13:10:31;4.35;;;2.50;;
24173;SDS011;12324;48.146;11.502;2023-04-03T13:13:10;5.43;;;2.60;;
24173;SDS011;12324;48.146;11.502;2023-04-03T13:15:43;5.53;;;2.65;;
24173;SDS011;12324;48.146;11.502;2023-04-03T13:18:21;9.38;;;2.65;;
24173;SDS011;12324;48.146;11.502;2023-04-03T13:20:51;8.38;;;3.13;;
24173;SDS011;12324;48.146;11.502;2023-04-03T13:23:19;5.53;;;2.40;;
24173;SDS011;12324;48.146;11.502;2023-04-03T13:25:47;10.85;;;2.92;;
24173;SDS011;12324;48.146;11.502;2023-04-03T13:28:15;6.25;;;2.85;;
24173;SDS011;12324;48.146;11.502;2023-04-03T13:33:29;3.50;;;2.33;;
24173;SDS011;12324;48.146;11.502;2023-04-03T13:36:02;6.18;;;2.60;;
24173;SDS011;12324;48.146;11.502;2023-04-03T13:38:31;7.18;;;3.10;;
24173;SDS011;12324;48.146;11.502;2023-04-03T13:41:01;9.70;;;2.97;;
24173;SDS011;12324;48.146;11.502;2023-04-03T13:43:30;9.05;;;3.33;;
24173;SDS011;12324;48.146;11.502;2023-04-03T13:46:00;7.47;;;3.20;;
24173;SDS011;12324;48.146;11.502;2023-04-03T13:48:48;14.93;;;3.20;;
24173;SDS011;12324;48.146;11.502;2023-04-03T13:51:19;7.55;;;2.72;;
24173;SDS011;12324;48.146;11.502;2023-04-03T13:56:25;12.25;;;2.50;;
24173;SDS011;12324;48.146;11.502;2023-04-03T13:58:54;9.70;;;3.00;;
24173;SDS011;12324;48.146;11.502;2023-04-03T14:01:22;8.15;;;2.97;;
24173;SDS011;12324;48.146;11.502;2023-04-03T14:06:19;8.43;;;2.70;;
24173;SDS011;12324;48.146;11.502;2023-04-03T14:08:46;6.30;;;2.40;;
24173;SDS011;12324;48.146;11.502;2023-04-03T14:11:16;6.88;;;2.53;;
24173;SDS011;12324;48.146;11.502;2023-04-03T14:13:46;8.10;;;3.28;;
24173;SDS011;12324;48.146;11.502;2023-04-03T14:16:15;8.73;;;3.08;;
24173;SDS011;12324;48.146;11.502;2023-04-03T14:18:45;8.27;;;3.33;;
24173;SDS011;12324;48.146;11.502;2023-04-03T14:21:13;7.88;;;2.83;;
24173;SDS011;12324;48.146;11.502;2023-04-03T14:23:41;6.20;;;2.65;;
24173;SDS011;12324;48.146;11.502;2023-04-03T14:26:15;4.15;;;2.33;;
24173;SDS011;12324;48.146;11.502;2023-04-03T14:28:44;6.03;;;2.58;;
24173;SDS011;12324;48.146;11.502;2023-04-03T14:31:12;9.93;;;3.15;;
24173;SDS011;12324;48.146;11.502;2023-04-03T14:33:40;4.88;;;2.50;;
24173;SDS011;12324;48.146;11.502;2023-04-03T14:36:15;5.38;;;2.35;;
24173;SDS011;12324;48.146;11.502;2023-04-03T14:38:43;6.35;;;2.60;;
24173;SDS011;12324;48.146;11.502;2023-04-03T14:41:12;6.00;;;2.42;;
24173;SDS011;12324;48.146;11.502;2023-04-03T14:43:42;6.25;;;2.55;;
24173;SDS011;12324;48.146;11.502;2023-04-03T14:46:12;7.13;;;2.90;;
24173;SDS011;12324;48.146;11.502;2023-04-03T14:48:44;4.65;;;2.58;;
24173;SDS011;12324;48.146;11.502;2023-04-03T14:51:12;6.00;;;2.30;;
24173;SDS011;12324;48.146;11.502;2023-04-03T14:53:40;3.75;;;1.95;;
24173;SDS011;12324;48.146;11.502;2023-04-03T14:56:14;2.85;;;2.00;;
24173;SDS011;12324;48.146;11.502;2023-04-03T14:58:57;4.78;;;1.98;;
24173;SDS011;12324;48.146;11.502;2023-04-03T15:01:27;6.07;;;2.47;;
24173;SDS011;12324;48.146;11.502;2023-04-03T15:03:54;3.83;;;1.98;;
24173;SDS011;12324;48.146;11.502;2023-04-03T15:06:21;5.10;;;2.08;;
24173;SDS011;12324;48.146;11.502;2023-04-03T15:08:49;8.10;;;2.63;;
24173;SDS011;12324;48.146;11.502;2023-04-03T15:11:16;5.75;;;2.42;;
24173;SDS011;12324;48.146;11.502;2023-04-03T15:13:43;9.02;;;2.83;;
24173;SDS011;12324;48.146;11.502;2023-04-03T15:16:12;6.05;;;2.45;;
24173;SDS011;12324;48.146;11.502;2023-04-03T15:18:40;4.78;;;2.40;;
24173;SDS011;12324;48.146;11.502;2023-04-03T15:21:08;7.45;;;2.38;;
24173;SDS011;12324;48.146;11.502;2023-04-03T15:23:35;4.90;;;2.33;;
24173;SDS011;12324;48.146;11.502;2023-04-03T15:26:02;4.30;;;2.30;;
24173;SDS011;12324;48.146;11.502;2023-04-03T15:28:30;6.28;;;2.10;;
24173;SDS011;12324;48.146;11.502;2023-04-03T15:30:58;4.97;;;2.25;;
24173;SDS011;12324;48.146;11.502;2023-04-03T15:33:25;4.68;;;1.92;;
24173;SDS011;12324;48.146;11.502;2023-04-03T15:35:53;5.45;;;2.45;;
24173;SDS011;12324;48.146;11.502;2023-04-03T15:38:32;4.22;;;1.83;;
24173;SDS011;12324;48.146;11.502;2023-04-03T15:41:00;5.82;;;2.50;;
24173;SDS011;12324;48.146;11.502;2023-04-03T15:43:27;5.60;;;2.78;;
24173;SDS011;12324;48.146;11.502;2023-04-03T15:45:58;6.75;;;2.50;;
24173;SDS011;12324;48.146;11.502;2023-04-03T15:48:26;7.60;;;2.55;;
24173;SDS011;12324;48.146;11.502;2023-04-03T15:50:53;4.63;;;2.40;;
24173;SDS011;12324;48.146;11.502;2023-04-03T15:53:22;4.60;;;2.45;;
24173;SDS011;12324;48.146;11.502;2023-04-03T15:55:50;6.22;;;2.50;;
24173;SDS011;12324;48.146;11.502;2023-04-03T15:58:17;4.35;;;2.10;;
24173;SDS011;12324;48.146;11.502;2023-04-03T16:00:44;5.32;;;2.42;;
24173;SDS011;12324;48.146;11.502;2023-04-03T16:03:12;6.03;;;2.20;;
24173;SDS011;12324;48.146;11.502;2023-04-03T16:05:43;5.10;;;2.28;;
24173;SDS011;12324;48.146;11.502;2023-04-03T16:08:10;7.93;;;2.40;;